createdAt,value
2019-01-08T00:00:44.289Z,1006.98
2019-01-08T00:01:44.278Z,1006.92
2019-01-08T00:02:44.260Z,1006.87
2019-01-08T00:03:44.250Z,1006.84
2019-01-08T00:04:44.238Z,1006.89
2019-01-08T00:05:44.227Z,1006.81
2019-01-08T00:06:44.216Z,1006.74
2019-01-08T00:07:44.206Z,1006.66
2019-01-08T00:08:44.196Z,1006.63
2019-01-08T00:09:44.183Z,1006.61
2019-01-08T00:10:44.173Z,1006.59
2019-01-08T00:11:44.162Z,1006.59
2019-01-08T00:12:44.151Z,1006.61
2019-01-08T00:13:44.138Z,1006.54
2019-01-08T00:14:44.128Z,1006.60
2019-01-08T00:15:44.119Z,1006.53
2019-01-08T00:16:44.107Z,1006.48
2019-01-08T00:17:44.094Z,1006.42
2019-01-08T00:18:44.085Z,1006.38
2019-01-08T00:19:44.071Z,1006.36
2019-01-08T00:20:44.060Z,1006.42
2019-01-08T00:21:44.050Z,1006.36
2019-01-08T00:22:44.040Z,1006.28
2019-01-08T00:23:44.076Z,1006.29
2019-01-08T00:24:44.019Z,1006.28
2019-01-08T00:25:44.004Z,1006.31
2019-01-08T00:26:43.993Z,1006.22
2019-01-08T00:27:43.985Z,1006.22
2019-01-08T00:28:43.973Z,1006.15
2019-01-08T00:29:43.961Z,1006.13
2019-01-08T00:30:43.950Z,1006.11
2019-01-08T00:31:43.939Z,1006.08
2019-01-08T00:32:43.927Z,1006.03
2019-01-08T00:33:43.917Z,1006.05
2019-01-08T00:34:43.905Z,1006.03
2019-01-08T00:35:43.893Z,1005.98
2019-01-08T00:36:43.884Z,1005.93
2019-01-08T00:37:43.872Z,1005.99
2019-01-08T00:38:43.860Z,1005.89
2019-01-08T00:39:43.849Z,1005.92
2019-01-08T00:40:43.839Z,1005.87
2019-01-08T00:41:43.829Z,1005.87
2019-01-08T00:42:43.817Z,1005.87
2019-01-08T00:43:43.804Z,1005.82
2019-01-08T00:44:43.795Z,1005.81
2019-01-08T00:45:43.782Z,1005.79
2019-01-08T00:46:43.773Z,1005.75
2019-01-08T00:47:43.760Z,1005.69
2019-01-08T00:48:43.748Z,1005.69
2019-01-08T00:49:43.737Z,1005.55
2019-01-08T00:50:43.726Z,1005.55
2019-01-08T00:51:43.716Z,1005.51
2019-01-08T00:52:43.704Z,1005.60
2019-01-08T00:54:03.342Z,1005.55
2019-01-08T00:55:25.745Z,1005.55
2019-01-08T00:56:25.726Z,1005.51
2019-01-08T00:57:25.713Z,1005.49
2019-01-08T00:58:25.704Z,1005.43
2019-01-08T00:59:25.692Z,1005.39
2019-01-08T01:00:25.684Z,1005.38
2019-01-08T01:01:25.669Z,1005.43
2019-01-08T01:02:25.659Z,1005.39
2019-01-08T01:03:25.650Z,1005.39
2019-01-08T01:04:25.637Z,1005.26
2019-01-08T01:05:25.628Z,1005.36
2019-01-08T01:06:25.617Z,1005.33
2019-01-08T01:07:25.603Z,1005.28
2019-01-08T01:08:25.594Z,1005.31
2019-01-08T01:09:25.590Z,1005.21
2019-01-08T01:10:25.571Z,1005.18
2019-01-08T01:11:25.565Z,1005.16
2019-01-08T01:12:25.551Z,1005.10
2019-01-08T01:13:25.540Z,1005.05
2019-01-08T01:14:25.538Z,1005.13
2019-01-08T01:15:25.515Z,1005.13
2019-01-08T01:16:25.506Z,1005.05
2019-01-08T01:17:25.492Z,1004.97
2019-01-08T01:18:25.483Z,1005.00
2019-01-08T01:19:25.472Z,1004.90
2019-01-08T01:20:25.460Z,1004.85
2019-01-08T01:21:25.451Z,1004.86
2019-01-08T01:22:25.439Z,1004.81
2019-01-08T01:23:25.432Z,1004.80
2019-01-08T01:24:25.422Z,1004.79
2019-01-08T01:25:25.405Z,1004.84
2019-01-08T01:26:25.394Z,1004.77
2019-01-08T01:27:25.384Z,1004.72
2019-01-08T01:28:25.378Z,1004.74
2019-01-08T01:30:53.350Z,1004.66
2019-01-08T01:32:13.973Z,1004.62
2019-01-08T01:35:03.319Z,1004.57
2019-01-08T01:36:22.943Z,1004.56
2019-01-08T01:37:45.354Z,1004.43
2019-01-08T01:38:45.338Z,1004.42
2019-01-08T01:41:14.308Z,1004.37
2019-01-08T01:42:14.281Z,1004.39
2019-01-08T01:43:14.269Z,1004.34
2019-01-08T01:44:14.260Z,1004.33
2019-01-08T01:45:14.250Z,1004.31
2019-01-08T01:46:14.236Z,1004.26
2019-01-08T01:47:34.859Z,1004.22
2019-01-08T01:48:56.258Z,1004.15
2019-01-08T01:49:56.246Z,1004.14
2019-01-08T01:50:56.236Z,1004.09
2019-01-08T01:51:56.226Z,1003.96
2019-01-08T01:52:56.215Z,1004.03
2019-01-08T01:53:56.202Z,1003.96
2019-01-08T01:54:56.192Z,1003.97
2019-01-08T01:55:56.182Z,1004.01
2019-01-08T01:56:56.169Z,1003.98
2019-01-08T01:57:56.166Z,1004.01
2019-01-08T01:58:56.150Z,1003.87
2019-01-08T01:59:56.135Z,1003.86
2019-01-08T02:00:56.126Z,1003.94
2019-01-08T02:01:56.115Z,1003.90
2019-01-08T02:02:56.105Z,1003.78
2019-01-08T02:03:56.095Z,1003.74
2019-01-08T02:04:56.080Z,1003.78
2019-01-08T02:05:56.069Z,1003.76
2019-01-08T02:06:56.063Z,1003.76
2019-01-08T02:07:56.046Z,1003.71
2019-01-08T02:08:56.037Z,1003.75
2019-01-08T02:09:56.026Z,1003.67
2019-01-08T02:10:56.014Z,1003.74
2019-01-08T02:11:56.003Z,1003.70
2019-01-08T02:12:55.991Z,1003.59
2019-01-08T02:13:55.985Z,1003.61
2019-01-08T02:14:55.973Z,1003.58
2019-01-08T02:15:55.958Z,1003.55
2019-01-08T02:16:55.967Z,1003.51
2019-01-08T02:17:55.936Z,1003.55
2019-01-08T02:18:55.924Z,1003.55
2019-01-08T02:19:55.918Z,1003.44
2019-01-08T02:20:55.903Z,1003.42
2019-01-08T02:21:55.894Z,1003.40
2019-01-08T02:22:55.880Z,1003.44
2019-01-08T02:23:55.878Z,1003.42
2019-01-08T02:24:55.862Z,1003.37
2019-01-08T02:25:55.846Z,1003.42
2019-01-08T02:26:55.837Z,1003.41
2019-01-08T02:27:55.842Z,1003.42
2019-01-08T02:28:55.813Z,1003.41
2019-01-08T02:29:55.808Z,1003.30
2019-01-08T02:30:55.813Z,1003.32
2019-01-08T02:31:55.803Z,1003.29
2019-01-08T02:32:55.799Z,1003.20
2019-01-08T02:33:55.769Z,1003.33
2019-01-08T02:34:55.772Z,1003.21
2019-01-08T02:35:55.744Z,1003.24
2019-01-08T02:36:55.724Z,1003.27
2019-01-08T02:37:55.715Z,1003.28
2019-01-08T02:38:55.704Z,1003.24
2019-01-08T02:39:55.690Z,1003.22
2019-01-08T02:40:55.683Z,1003.18
2019-01-08T02:41:55.824Z,1003.18
2019-01-08T02:42:55.659Z,1003.11
2019-01-08T02:43:55.663Z,1003.13
2019-01-08T02:44:55.640Z,1003.05
2019-01-08T02:45:55.660Z,1003.07
2019-01-08T02:46:55.617Z,1003.06
2019-01-08T02:47:55.606Z,1003.03
2019-01-08T02:48:55.593Z,1002.99
2019-01-08T02:49:55.588Z,1002.99
2019-01-08T02:50:55.585Z,1002.96
2019-01-08T02:51:55.559Z,1002.84
2019-01-08T02:52:55.547Z,1002.91
2019-01-08T02:53:55.539Z,1002.88
2019-01-08T02:54:55.524Z,1002.80
2019-01-08T02:55:55.514Z,1002.81
2019-01-08T02:56:55.504Z,1002.76
2019-01-08T02:57:55.491Z,1002.67
2019-01-08T02:58:55.484Z,1002.69
2019-01-08T03:00:15.094Z,1002.77
2019-01-08T03:01:37.010Z,1002.71
2019-01-08T03:02:56.623Z,1002.64
2019-01-08T03:04:07.463Z,1002.69
2019-01-08T03:06:36.562Z,1002.64
2019-01-08T03:07:36.549Z,1002.47
2019-01-08T03:08:36.539Z,1002.50
2019-01-08T03:09:36.527Z,1002.47
2019-01-08T03:10:36.516Z,1002.47
2019-01-08T03:11:36.505Z,1002.44
2019-01-08T03:12:36.494Z,1002.39
2019-01-08T03:13:36.485Z,1002.30
2019-01-08T03:14:36.473Z,1002.31
2019-01-08T03:15:36.460Z,1002.25
2019-01-08T03:16:36.450Z,1002.23
2019-01-08T03:17:36.438Z,1002.24
2019-01-08T03:18:36.426Z,1002.22
2019-01-08T03:19:36.418Z,1002.26
2019-01-08T03:20:36.404Z,1002.19
2019-01-08T03:21:36.394Z,1002.17
2019-01-08T03:22:36.386Z,1002.15
2019-01-08T03:23:36.371Z,1002.16
2019-01-08T03:24:36.360Z,1002.14
2019-01-08T03:25:36.349Z,1002.08
2019-01-08T03:26:36.341Z,1002.03
2019-01-08T03:27:36.326Z,1002.03
2019-01-08T03:28:36.319Z,1001.93
2019-01-08T03:29:36.305Z,1001.92
2019-01-08T03:30:36.294Z,1001.90
2019-01-08T03:31:36.283Z,1001.87
2019-01-08T03:32:36.271Z,1001.82
2019-01-08T03:33:36.260Z,1001.83
2019-01-08T03:34:36.250Z,1001.78
2019-01-08T03:35:36.238Z,1001.79
2019-01-08T03:36:36.227Z,1001.78
2019-01-08T03:37:36.217Z,1001.73
2019-01-08T03:38:36.204Z,1001.71
2019-01-08T03:39:36.195Z,1001.71
2019-01-08T03:40:36.183Z,1001.71
2019-01-08T03:41:36.192Z,1001.69
2019-01-08T03:42:36.159Z,1001.67
2019-01-08T03:43:36.150Z,1001.66
2019-01-08T03:44:36.139Z,1001.60
2019-01-08T03:45:36.126Z,1001.60
2019-01-08T03:46:36.115Z,1001.55
2019-01-08T03:47:36.104Z,1001.56
2019-01-08T03:48:36.097Z,1001.52
2019-01-08T03:49:36.084Z,1001.56
2019-01-08T03:50:36.073Z,1001.50
2019-01-08T03:51:36.060Z,1001.52
2019-01-08T03:52:36.048Z,1001.56
2019-01-08T03:53:36.041Z,1001.52
2019-01-08T03:54:36.027Z,1001.54
2019-01-08T03:55:36.014Z,1001.50
2019-01-08T03:56:36.005Z,1001.42
2019-01-08T03:57:35.995Z,1001.47
2019-01-08T03:58:35.983Z,1001.35
2019-01-08T03:59:41.869Z,1001.39
2019-01-08T04:02:04.934Z,1001.26
2019-01-08T04:03:24.539Z,1001.22
2019-01-08T04:06:03.824Z,1001.18
2019-01-08T04:07:23.433Z,1001.07
2019-01-08T04:08:46.842Z,1001.03
2019-01-08T04:09:46.830Z,1001.03
2019-01-08T04:10:46.823Z,1001.04
2019-01-08T04:11:46.809Z,1001.02
2019-01-08T04:12:46.799Z,1001.00
2019-01-08T04:13:46.787Z,1000.99
2019-01-08T04:14:46.775Z,1000.93
2019-01-08T04:15:46.768Z,1000.94
2019-01-08T04:16:46.754Z,1000.93
2019-01-08T04:17:46.741Z,1000.91
2019-01-08T04:18:46.731Z,1000.84
2019-01-08T04:19:46.719Z,1000.88
2019-01-08T04:20:46.708Z,1000.85
2019-01-08T04:21:46.699Z,1000.81
2019-01-08T04:22:46.688Z,1000.80
2019-01-08T04:23:46.676Z,1000.78
2019-01-08T04:24:46.664Z,1000.84
2019-01-08T04:25:46.653Z,1000.78
2019-01-08T04:26:46.644Z,1000.73
2019-01-08T04:27:46.630Z,1000.79
2019-01-08T04:28:46.620Z,1000.88
2019-01-08T04:29:50.684Z,1000.83
2019-01-08T04:31:07.904Z,1000.86
2019-01-08T04:32:29.640Z,1000.80
2019-01-08T04:33:49.263Z,1000.78
2019-01-08T04:35:11.662Z,1000.78
2019-01-08T04:36:31.314Z,1000.76
2019-01-08T04:37:53.684Z,1000.73
2019-01-08T04:38:53.669Z,1000.67
2019-01-08T04:39:53.662Z,1000.64
2019-01-08T04:40:53.648Z,1000.57
2019-01-08T04:41:53.637Z,1000.52
2019-01-08T04:42:53.627Z,1000.48
2019-01-08T04:43:53.617Z,1000.46
2019-01-08T04:44:53.604Z,1000.44
2019-01-08T04:45:53.594Z,1000.38
2019-01-08T04:46:53.586Z,1000.36
2019-01-08T04:47:53.572Z,1000.29
2019-01-08T04:48:53.560Z,1000.27
2019-01-08T04:49:53.559Z,1000.24
2019-01-08T04:50:53.540Z,1000.19
2019-01-08T04:51:53.530Z,1000.10
2019-01-08T04:52:53.516Z,1000.19
2019-01-08T04:53:53.506Z,1000.03
2019-01-08T04:54:53.495Z,999.99
2019-01-08T04:55:53.485Z,999.93
2019-01-08T04:56:53.474Z,999.88
2019-01-08T04:57:53.462Z,999.87
2019-01-08T04:58:53.452Z,999.82
2019-01-08T04:59:58.944Z,999.84
2019-01-08T05:00:54.437Z,999.76
2019-01-08T05:01:53.419Z,999.79
2019-01-08T05:02:53.411Z,999.73
2019-01-08T05:03:53.396Z,999.66
2019-01-08T05:04:53.384Z,999.67
2019-01-08T05:05:53.667Z,999.62
2019-01-08T05:06:53.363Z,999.64
2019-01-08T05:07:53.353Z,999.61
2019-01-08T05:08:53.343Z,999.66
2019-01-08T05:09:53.330Z,999.60
2019-01-08T05:10:53.321Z,999.56
2019-01-08T05:11:53.308Z,999.56
2019-01-08T05:12:53.298Z,999.48
2019-01-08T05:13:53.286Z,999.50
2019-01-08T05:14:53.275Z,999.44
2019-01-08T05:15:53.263Z,999.35
2019-01-08T05:16:53.255Z,999.40
2019-01-08T05:17:53.242Z,999.38
2019-01-08T05:18:53.231Z,999.26
2019-01-08T05:19:53.220Z,999.25
2019-01-08T05:20:53.213Z,999.22
2019-01-08T05:21:53.216Z,999.31
2019-01-08T05:22:53.190Z,999.29
2019-01-08T05:23:53.176Z,999.26
2019-01-08T05:24:53.168Z,999.24
2019-01-08T05:25:53.154Z,999.21
2019-01-08T05:26:53.144Z,999.19
2019-01-08T05:27:53.132Z,999.17
2019-01-08T05:28:53.122Z,999.29
2019-01-08T05:29:53.139Z,999.20
2019-01-08T05:30:53.101Z,999.22
2019-01-08T05:31:53.088Z,999.18
2019-01-08T05:32:53.076Z,999.20
2019-01-08T05:33:53.066Z,999.16
2019-01-08T05:34:53.055Z,999.09
2019-01-08T05:35:53.047Z,999.07
2019-01-08T05:36:53.032Z,999.08
2019-01-08T05:37:53.022Z,999.04
2019-01-08T05:38:53.014Z,998.96
2019-01-08T05:39:53.002Z,998.98
2019-01-08T05:40:52.990Z,998.99
2019-01-08T05:41:52.993Z,998.99
2019-01-08T05:42:52.966Z,998.99
2019-01-08T05:43:52.958Z,998.95
2019-01-08T05:44:52.943Z,998.88
2019-01-08T05:45:52.935Z,998.82
2019-01-08T05:46:52.927Z,998.76
2019-01-08T05:47:52.913Z,998.85
2019-01-08T05:48:52.904Z,998.83
2019-01-08T05:49:52.890Z,998.76
2019-01-08T05:50:52.880Z,998.72
2019-01-08T05:51:52.868Z,998.66
2019-01-08T05:52:52.858Z,998.71
2019-01-08T05:53:52.850Z,998.62
2019-01-08T05:54:52.835Z,998.66
2019-01-08T05:55:52.824Z,998.62
2019-01-08T05:56:52.812Z,998.61
2019-01-08T05:57:52.802Z,998.58
2019-01-08T05:58:52.792Z,998.59
2019-01-08T05:59:52.783Z,998.61
2019-01-08T06:00:52.771Z,998.52
2019-01-08T06:01:52.761Z,998.58
2019-01-08T06:02:52.749Z,998.59
2019-01-08T06:03:52.735Z,998.56
2019-01-08T06:04:52.726Z,998.58
2019-01-08T06:05:52.715Z,998.60
2019-01-08T06:06:52.704Z,998.53
2019-01-08T06:07:52.691Z,998.53
2019-01-08T06:08:53.271Z,998.54
2019-01-08T06:09:52.669Z,998.52
2019-01-08T06:10:52.659Z,998.48
2019-01-08T06:11:52.647Z,998.48
2019-01-08T06:12:52.639Z,998.46
2019-01-08T06:13:52.626Z,998.45
2019-01-08T06:14:52.615Z,998.39
2019-01-08T06:16:12.240Z,998.34
2019-01-08T06:17:35.154Z,998.33
2019-01-08T06:18:35.139Z,998.31
2019-01-08T06:20:17.178Z,998.31
2019-01-08T06:22:45.135Z,998.28
2019-01-08T06:23:45.095Z,998.20
2019-01-08T06:24:45.086Z,998.22
2019-01-08T06:25:45.073Z,998.19
2019-01-08T06:26:45.087Z,998.22
2019-01-08T06:27:45.063Z,998.26
2019-01-08T06:28:45.041Z,998.16
2019-01-08T06:29:45.030Z,998.12
2019-01-08T06:30:45.017Z,998.08
2019-01-08T06:31:45.008Z,998.14
2019-01-08T06:32:44.998Z,998.03
2019-01-08T06:33:44.984Z,997.96
2019-01-08T06:34:44.973Z,997.93
2019-01-08T06:35:44.963Z,997.96
2019-01-08T06:36:44.950Z,997.94
2019-01-08T06:37:44.940Z,997.87
2019-01-08T06:38:44.928Z,997.86
2019-01-08T06:39:44.919Z,997.84
2019-01-08T06:40:44.911Z,997.82
2019-01-08T06:41:44.894Z,997.82
2019-01-08T06:42:44.892Z,997.78
2019-01-08T06:43:44.876Z,997.81
2019-01-08T06:44:44.862Z,997.75
2019-01-08T06:45:44.865Z,997.75
2019-01-08T06:46:44.840Z,997.78
2019-01-08T06:47:44.831Z,997.70
2019-01-08T06:48:44.816Z,997.67
2019-01-08T06:49:44.805Z,997.60
2019-01-08T06:50:44.797Z,997.58
2019-01-08T06:51:44.784Z,997.56
2019-01-08T06:52:44.776Z,997.56
2019-01-08T06:54:36.220Z,997.56
2019-01-08T06:55:36.205Z,997.56
2019-01-08T06:57:18.235Z,997.57
2019-01-08T06:58:18.223Z,997.53
2019-01-08T06:59:18.213Z,997.49
2019-01-08T07:00:18.202Z,997.52
2019-01-08T07:01:18.191Z,997.42
2019-01-08T07:02:18.179Z,997.41
2019-01-08T07:03:18.168Z,997.46
2019-01-08T07:04:18.157Z,997.38
2019-01-08T07:05:18.146Z,997.37
2019-01-08T07:06:18.134Z,997.33
2019-01-08T07:07:18.125Z,997.29
2019-01-08T07:08:18.113Z,997.25
2019-01-08T07:09:18.104Z,997.22
2019-01-08T07:10:18.101Z,997.22
2019-01-08T07:11:18.080Z,997.21
2019-01-08T07:12:18.067Z,997.20
2019-01-08T07:13:18.059Z,997.24
2019-01-08T07:14:18.049Z,997.21
2019-01-08T07:15:18.034Z,997.21
2019-01-08T07:16:18.024Z,997.26
2019-01-08T07:17:18.018Z,997.15
2019-01-08T07:18:18.002Z,997.19
2019-01-08T07:19:18.006Z,997.09
2019-01-08T07:20:17.979Z,997.11
2019-01-08T07:21:17.969Z,997.08
2019-01-08T07:22:17.956Z,997.02
2019-01-08T07:23:17.947Z,996.91
2019-01-08T07:24:17.936Z,996.88
2019-01-08T07:25:17.923Z,996.95
2019-01-08T07:26:17.914Z,996.88
2019-01-08T07:27:17.902Z,996.78
2019-01-08T07:28:17.890Z,996.77
2019-01-08T07:29:17.881Z,996.77
2019-01-08T07:30:17.869Z,996.70
2019-01-08T07:31:17.857Z,996.72
2019-01-08T07:32:17.845Z,996.71
2019-01-08T07:33:17.834Z,996.65
2019-01-08T07:34:17.826Z,996.67
2019-01-08T07:35:17.815Z,996.64
2019-01-08T07:36:17.802Z,996.60
2019-01-08T07:37:17.791Z,996.64
2019-01-08T07:38:17.779Z,996.52
2019-01-08T07:39:17.768Z,996.50
2019-01-08T07:40:17.757Z,996.52
2019-01-08T07:41:17.746Z,996.49
2019-01-08T07:42:17.736Z,996.53
2019-01-08T07:43:17.724Z,996.45
2019-01-08T07:44:17.713Z,996.36
2019-01-08T07:45:17.700Z,996.39
2019-01-08T07:46:17.690Z,996.29
2019-01-08T07:47:17.679Z,996.23
2019-01-08T07:48:17.669Z,996.25
2019-01-08T07:49:17.658Z,996.20
2019-01-08T07:50:17.648Z,996.22
2019-01-08T07:51:17.635Z,996.17
2019-01-08T07:52:17.624Z,996.19
2019-01-08T07:53:17.612Z,996.16
2019-01-08T07:54:17.608Z,996.11
2019-01-08T07:55:17.591Z,996.09
2019-01-08T07:56:17.578Z,996.03
2019-01-08T07:57:17.568Z,996.09
2019-01-08T07:58:17.556Z,996.06
2019-01-08T07:59:17.545Z,996.02
2019-01-08T08:00:17.535Z,996.00
2019-01-08T08:01:17.525Z,995.98
2019-01-08T08:02:17.512Z,995.93
2019-01-08T08:03:17.501Z,995.93
2019-01-08T08:04:17.491Z,995.98
2019-01-08T08:05:17.480Z,995.98
2019-01-08T08:06:17.469Z,995.92
2019-01-08T08:07:17.456Z,995.90
2019-01-08T08:08:17.446Z,995.90
2019-01-08T08:09:17.433Z,995.88
2019-01-08T08:10:17.422Z,995.90
2019-01-08T08:11:17.413Z,995.89
2019-01-08T08:12:17.400Z,995.88
2019-01-08T08:13:17.390Z,995.85
2019-01-08T08:14:17.378Z,995.85
2019-01-08T08:15:17.367Z,995.78
2019-01-08T08:16:17.356Z,995.76
2019-01-08T08:17:17.346Z,995.76
2019-01-08T08:18:17.333Z,995.69
2019-01-08T08:19:17.327Z,995.67
2019-01-08T08:20:17.313Z,995.59
2019-01-08T08:21:17.300Z,995.69
2019-01-08T08:22:17.288Z,995.62
2019-01-08T08:23:17.279Z,995.61
2019-01-08T08:24:17.269Z,995.61
2019-01-08T08:25:17.256Z,995.57
2019-01-08T08:26:17.247Z,995.59
2019-01-08T08:27:17.235Z,995.61
2019-01-08T08:28:17.222Z,995.61
2019-01-08T08:29:17.212Z,995.52
2019-01-08T08:30:17.202Z,995.54
2019-01-08T08:31:17.190Z,995.49
2019-01-08T08:32:17.180Z,995.50
2019-01-08T08:33:17.169Z,995.52
2019-01-08T08:34:17.156Z,995.50
2019-01-08T08:35:17.145Z,995.47
2019-01-08T08:36:17.133Z,995.43
2019-01-08T08:37:17.123Z,995.41
2019-01-08T08:38:17.111Z,995.46
2019-01-08T08:39:17.100Z,995.34
2019-01-08T08:40:17.090Z,995.38
2019-01-08T08:41:17.081Z,995.31
2019-01-08T08:42:17.072Z,995.28
2019-01-08T08:43:17.057Z,995.29
2019-01-08T08:44:17.044Z,995.27
2019-01-08T08:45:17.035Z,995.25
2019-01-08T08:46:17.026Z,995.19
2019-01-08T08:47:17.011Z,995.16
2019-01-08T08:48:17.001Z,995.08
2019-01-08T08:49:16.990Z,995.17
2019-01-08T08:50:16.980Z,995.06
2019-01-08T08:51:16.967Z,995.03
2019-01-08T08:52:16.956Z,995.02
2019-01-08T08:53:16.945Z,994.96
2019-01-08T08:54:16.933Z,994.98
2019-01-08T08:55:16.923Z,994.97
2019-01-08T08:56:16.912Z,994.92
2019-01-08T08:57:16.901Z,994.95
2019-01-08T08:58:16.891Z,994.75
2019-01-08T08:59:16.877Z,994.83
2019-01-08T09:00:16.866Z,994.85
2019-01-08T09:01:16.858Z,994.66
2019-01-08T09:02:16.847Z,994.67
2019-01-08T09:03:16.832Z,994.71
2019-01-08T09:04:16.821Z,994.75
2019-01-08T09:05:16.810Z,994.70
2019-01-08T09:06:16.800Z,994.66
2019-01-08T09:07:16.789Z,994.63
2019-01-08T09:08:16.777Z,994.62
2019-01-08T09:09:16.766Z,994.57
2019-01-08T09:10:16.755Z,994.52
2019-01-08T09:11:16.745Z,994.52
2019-01-08T09:12:16.734Z,994.42
2019-01-08T09:13:16.721Z,994.60
2019-01-08T09:14:16.713Z,994.55
2019-01-08T09:15:16.702Z,994.52
2019-01-08T09:16:16.689Z,994.49
2019-01-08T09:17:16.677Z,994.42
2019-01-08T09:18:16.668Z,994.41
2019-01-08T09:19:16.655Z,994.48
2019-01-08T09:20:16.644Z,994.37
2019-01-08T09:21:16.634Z,994.44
2019-01-08T09:22:16.623Z,994.34
2019-01-08T09:23:16.610Z,994.35
2019-01-08T09:24:16.599Z,994.30
2019-01-08T09:25:16.590Z,994.32
2019-01-08T09:26:16.576Z,994.30
2019-01-08T09:27:16.566Z,994.33
2019-01-08T09:28:16.555Z,994.28
2019-01-08T09:29:16.544Z,994.21
2019-01-08T09:30:16.533Z,994.17
2019-01-08T09:31:16.523Z,994.20
2019-01-08T09:32:16.510Z,994.22
2019-01-08T09:33:16.499Z,994.14
2019-01-08T09:34:16.487Z,994.16
2019-01-08T09:35:16.475Z,994.11
2019-01-08T09:36:16.465Z,994.06
2019-01-08T09:37:16.463Z,994.00
2019-01-08T09:38:16.445Z,994.00
2019-01-08T09:39:16.431Z,993.99
2019-01-08T09:40:16.422Z,993.92
2019-01-08T09:41:16.410Z,993.89
2019-01-08T09:42:16.399Z,993.87
2019-01-08T09:43:16.386Z,993.90
2019-01-08T09:44:16.379Z,993.82
2019-01-08T09:45:16.368Z,993.77
2019-01-08T09:46:16.354Z,993.80
2019-01-08T09:47:16.346Z,993.76
2019-01-08T09:48:16.331Z,993.72
2019-01-08T09:49:16.320Z,993.74
2019-01-08T09:50:16.312Z,993.71
2019-01-08T09:51:16.299Z,993.72
2019-01-08T09:52:16.287Z,993.56
2019-01-08T09:53:16.277Z,993.67
2019-01-08T09:54:16.265Z,993.48
2019-01-08T09:55:16.253Z,993.57
2019-01-08T09:56:16.245Z,993.52
2019-01-08T09:57:16.231Z,993.54
2019-01-08T09:58:16.220Z,993.59
2019-01-08T09:59:16.211Z,993.56
2019-01-08T10:00:16.198Z,993.56
2019-01-08T10:01:23.559Z,993.52
2019-01-08T10:02:17.174Z,993.54
2019-01-08T10:03:16.165Z,993.49
2019-01-08T10:04:16.154Z,993.52
2019-01-08T10:05:16.143Z,993.47
2019-01-08T10:06:16.132Z,993.51
2019-01-08T10:07:16.121Z,993.44
2019-01-08T10:08:16.110Z,993.40
2019-01-08T10:09:16.097Z,993.40
2019-01-08T10:10:16.088Z,993.22
2019-01-08T10:11:16.078Z,993.36
2019-01-08T10:12:16.075Z,993.36
2019-01-08T10:13:16.053Z,993.29
2019-01-08T10:14:16.042Z,993.20
2019-01-08T10:15:16.030Z,993.18
2019-01-08T10:16:16.019Z,993.20
2019-01-08T10:17:16.008Z,993.23
2019-01-08T10:18:15.999Z,993.20
2019-01-08T10:19:15.986Z,993.11
2019-01-08T10:20:15.975Z,993.02
2019-01-08T10:21:15.975Z,993.07
2019-01-08T10:22:15.952Z,993.08
2019-01-08T10:23:15.943Z,993.07
2019-01-08T10:24:15.933Z,993.02
2019-01-08T10:25:15.985Z,993.01
2019-01-08T10:26:15.908Z,992.94
2019-01-08T10:27:15.898Z,992.96
2019-01-08T10:28:15.885Z,992.96
2019-01-08T10:29:15.880Z,992.82
2019-01-08T10:30:15.863Z,992.96
2019-01-08T10:31:15.852Z,992.83
2019-01-08T10:32:15.843Z,992.84
2019-01-08T10:33:15.830Z,992.81
2019-01-08T10:34:15.819Z,992.81
2019-01-08T10:35:15.807Z,992.79
2019-01-08T10:36:15.798Z,992.77
2019-01-08T10:37:15.791Z,992.79
2019-01-08T10:38:15.778Z,992.74
2019-01-08T10:39:15.762Z,992.69
2019-01-08T10:40:15.752Z,992.65
2019-01-08T10:41:15.739Z,992.61
2019-01-08T10:42:15.728Z,992.62
2019-01-08T10:43:15.719Z,992.55
2019-01-08T10:44:15.714Z,992.54
2019-01-08T10:45:15.698Z,992.63
2019-01-08T10:46:15.688Z,992.43
2019-01-08T10:47:15.673Z,992.49
2019-01-08T10:48:15.662Z,992.52
2019-01-08T10:49:15.651Z,992.51
2019-01-08T10:50:15.642Z,992.48
2019-01-08T10:51:15.631Z,992.49
2019-01-08T10:52:15.620Z,992.42
2019-01-08T10:53:15.607Z,992.46
2019-01-08T10:54:15.596Z,992.47
2019-01-08T10:55:15.585Z,992.33
2019-01-08T10:56:15.575Z,992.31
2019-01-08T10:57:15.560Z,992.34
2019-01-08T10:58:15.553Z,992.33
2019-01-08T10:59:15.543Z,992.39
2019-01-08T11:00:15.544Z,992.29
2019-01-08T11:01:15.521Z,992.26
2019-01-08T11:02:15.506Z,992.30
2019-01-08T11:03:15.529Z,992.24
2019-01-08T11:04:15.485Z,992.26
2019-01-08T11:05:15.473Z,992.25
2019-01-08T11:06:15.462Z,992.15
2019-01-08T11:07:15.449Z,992.12
2019-01-08T11:08:15.442Z,992.23
2019-01-08T11:09:15.428Z,992.17
2019-01-08T11:10:15.420Z,992.26
2019-01-08T11:11:15.404Z,992.14
2019-01-08T11:12:15.393Z,992.14
2019-01-08T11:13:15.383Z,992.08
2019-01-08T11:14:15.372Z,992.07
2019-01-08T11:15:15.360Z,992.15
2019-01-08T11:16:15.348Z,992.16
2019-01-08T11:17:15.340Z,992.08
2019-01-08T11:18:15.334Z,992.08
2019-01-08T11:19:15.316Z,992.05
2019-01-08T11:20:15.304Z,992.03
2019-01-08T11:21:15.294Z,991.98
2019-01-08T11:22:15.282Z,991.94
2019-01-08T11:23:15.271Z,991.96
2019-01-08T11:24:15.261Z,992.03
2019-01-08T11:25:15.249Z,992.01
2019-01-08T11:26:15.237Z,991.93
2019-01-08T11:27:15.227Z,991.88
2019-01-08T11:28:15.221Z,991.93
2019-01-08T11:29:15.211Z,991.88
2019-01-08T11:30:15.193Z,991.90
2019-01-08T11:31:15.181Z,991.87
2019-01-08T11:32:15.169Z,991.82
2019-01-08T11:33:15.178Z,991.83
2019-01-08T11:34:15.148Z,991.78
2019-01-08T11:35:15.137Z,991.78
2019-01-08T11:36:15.126Z,991.78
2019-01-08T11:37:15.114Z,991.85
2019-01-08T11:38:15.103Z,991.84
2019-01-08T11:39:15.092Z,991.76
2019-01-08T11:40:15.080Z,991.71
2019-01-08T11:41:15.070Z,991.71
2019-01-08T11:42:15.059Z,991.71
2019-01-08T11:43:15.047Z,991.74
2019-01-08T11:44:15.039Z,991.65
2019-01-08T11:45:15.025Z,991.61
2019-01-08T11:46:15.014Z,991.57
2019-01-08T11:47:15.005Z,991.66
2019-01-08T11:48:14.991Z,991.61
2019-01-08T11:49:14.981Z,991.60
2019-01-08T11:50:14.973Z,991.68
2019-01-08T11:51:14.957Z,991.55
2019-01-08T11:52:14.947Z,991.65
2019-01-08T11:53:14.941Z,991.68
2019-01-08T11:54:14.925Z,991.55
2019-01-08T11:55:14.915Z,991.58
2019-01-08T11:56:14.902Z,991.58
2019-01-08T11:57:14.891Z,991.59
2019-01-08T11:58:14.879Z,991.57
2019-01-08T11:59:14.871Z,991.53
2019-01-08T12:00:14.858Z,991.54
2019-01-08T12:01:14.847Z,991.50
2019-01-08T12:02:14.835Z,991.52
2019-01-08T12:03:14.824Z,991.48
2019-01-08T12:04:14.812Z,991.47
2019-01-08T12:05:14.801Z,991.48
2019-01-08T12:06:14.790Z,991.58
2019-01-08T12:07:14.780Z,991.60
2019-01-08T12:08:14.774Z,991.51
2019-01-08T12:09:14.757Z,991.45
2019-01-08T12:10:14.807Z,991.42
2019-01-08T12:11:14.735Z,991.42
2019-01-08T12:12:14.724Z,991.37
2019-01-08T12:13:14.714Z,991.45
2019-01-08T12:14:14.700Z,991.41
2019-01-08T12:15:14.694Z,991.40
2019-01-08T12:16:14.679Z,991.35
2019-01-08T12:17:14.668Z,991.23
2019-01-08T12:18:14.659Z,991.36
2019-01-08T12:19:14.645Z,991.28
2019-01-08T12:20:14.636Z,991.27
2019-01-08T12:21:14.638Z,991.27
2019-01-08T12:22:14.624Z,991.23
2019-01-08T12:23:14.614Z,991.26
2019-01-08T12:24:14.595Z,991.33
2019-01-08T12:25:14.578Z,991.31
2019-01-08T12:26:14.566Z,991.34
2019-01-08T12:27:14.556Z,991.31
2019-01-08T12:28:14.548Z,991.27
2019-01-08T12:29:14.533Z,991.34
2019-01-08T12:30:14.523Z,991.28
2019-01-08T12:31:14.511Z,991.20
2019-01-08T12:32:14.500Z,991.25
2019-01-08T12:33:14.488Z,991.34
2019-01-08T12:34:14.478Z,991.26
2019-01-08T12:35:14.466Z,991.34
2019-01-08T12:36:14.473Z,991.22
2019-01-08T12:37:14.444Z,991.23
2019-01-08T12:38:14.433Z,991.27
2019-01-08T12:39:14.422Z,991.24
2019-01-08T12:40:14.410Z,991.26